createdAt,value
2022-08-09T00:00:00.939Z,22.70
2022-08-09T00:02:34.233Z,22.60
2022-08-09T00:06:19.162Z,22.60
2022-08-09T00:07:54.420Z,22.60
2022-08-09T00:10:24.813Z,22.60
2022-08-09T00:12:53.328Z,22.50
2022-08-09T00:15:26.577Z,22.60
2022-08-09T00:18:10.562Z,22.50
2022-08-09T00:20:48.292Z,22.50
2022-08-09T00:23:57.919Z,22.50
2022-08-09T00:26:06.864Z,22.50
2022-08-09T00:28:35.910Z,22.40
2022-08-09T00:31:09.096Z,22.60
2022-08-09T00:33:54.942Z,22.40
2022-08-09T00:36:29.587Z,22.50
2022-08-09T00:38:59.115Z,22.40
2022-08-09T00:44:15.388Z,22.30
2022-08-09T00:44:26.785Z,22.40
2022-08-09T00:47:05.610Z,22.40
2022-08-09T00:49:34.636Z,22.30
2022-08-09T00:52:17.508Z,22.30
2022-08-09T00:54:46.284Z,22.30
2022-08-09T00:57:14.291Z,22.30
2022-08-09T01:00:03.005Z,22.20
2022-08-09T01:02:33.994Z,22.20
2022-08-09T01:05:13.955Z,22.20
2022-08-09T01:07:59.914Z,22.20
2022-08-09T01:10:40.034Z,22.10
2022-08-09T01:13:16.711Z,22.10
2022-08-09T01:15:52.108Z,22.20
2022-08-09T01:18:29.786Z,22.20
2022-08-09T01:21:11.000Z,22.20
2022-08-09T01:24:02.974Z,22.10
2022-08-09T01:26:52.712Z,22.10
2022-08-09T01:29:28.898Z,22.10
2022-08-09T01:32:29.703Z,22.10
2022-08-09T01:35:06.838Z,22.20
2022-08-09T01:38:06.405Z,22.00
2022-08-09T01:40:28.585Z,22.00
2022-08-09T01:43:00.321Z,22.00
2022-08-09T01:45:29.407Z,21.90
2022-08-09T01:48:00.976Z,22.10
2022-08-09T01:50:36.727Z,21.90
2022-08-09T01:53:19.476Z,21.90
2022-08-09T01:55:48.812Z,21.90
2022-08-09T01:58:18.776Z,21.90
2022-08-09T02:00:54.361Z,21.80
2022-08-09T02:03:24.544Z,21.80
2022-08-09T02:06:06.224Z,21.70
2022-08-09T02:08:56.877Z,21.70
2022-08-09T02:11:42.557Z,21.60
2022-08-09T02:14:25.665Z,22.00
2022-08-09T02:17:14.393Z,21.70
2022-08-09T02:19:44.024Z,21.60
2022-08-09T02:22:27.361Z,21.60
2022-08-09T02:25:06.763Z,21.70
2022-08-09T02:27:57.504Z,21.60
2022-08-09T02:30:29.156Z,21.50
2022-08-09T02:32:59.352Z,21.60
2022-08-09T02:36:03.784Z,21.60
2022-08-09T02:38:28.869Z,21.50
2022-08-09T02:41:01.747Z,21.60
2022-08-09T02:43:53.459Z,21.50
2022-08-09T02:46:25.448Z,21.30
2022-08-09T02:48:57.727Z,21.50
2022-08-09T02:51:27.145Z,21.40
2022-08-09T02:54:00.989Z,21.30
2022-08-09T02:56:31.543Z,21.40
2022-08-09T02:59:01.094Z,21.60
2022-08-09T03:01:43.295Z,21.40
2022-08-09T03:04:20.485Z,21.40
2022-08-09T03:06:55.447Z,21.50
2022-08-09T03:09:24.007Z,21.50
2022-08-09T03:12:05.492Z,21.30
2022-08-09T03:14:38.479Z,21.30
2022-08-09T03:17:16.583Z,21.20
2022-08-09T03:20:00.129Z,21.30
2022-08-09T03:22:41.818Z,21.30
2022-08-09T03:25:26.397Z,21.50
2022-08-09T03:28:03.419Z,21.20
2022-08-09T03:30:34.042Z,21.40
2022-08-09T03:33:17.078Z,21.30
2022-08-09T03:36:15.697Z,21.20
2022-08-09T03:38:37.343Z,21.10
2022-08-09T03:41:09.696Z,21.20
2022-08-09T03:44:03.661Z,21.10
2022-08-09T03:46:32.945Z,21.20
2022-08-09T03:49:08.503Z,21.20
2022-08-09T03:51:43.768Z,21.20
2022-08-09T03:54:31.257Z,21.10
2022-08-09T03:57:02.097Z,21.10
2022-08-09T03:59:53.494Z,21.10
2022-08-09T04:02:26.697Z,21.50
2022-08-09T04:04:58.710Z,21.20
2022-08-09T04:07:47.128Z,21.30
2022-08-09T04:10:18.289Z,21.10
2022-08-09T04:12:50.057Z,21.10
2022-08-09T04:15:40.562Z,21.30
2022-08-09T04:18:09.263Z,21.20
2022-08-09T04:20:46.518Z,21.10
2022-08-09T04:23:16.699Z,21.00
2022-08-09T04:25:52.242Z,21.20
2022-08-09T04:28:33.894Z,21.20
2022-08-09T04:31:09.259Z,21.20
2022-08-09T04:33:52.713Z,21.60
2022-08-09T04:36:24.028Z,21.20
2022-08-09T04:38:52.541Z,21.10
2022-08-09T04:41:23.604Z,21.10
2022-08-09T04:44:05.253Z,21.10
2022-08-09T04:46:38.269Z,21.10
2022-08-09T04:49:30.229Z,21.10
2022-08-09T04:52:11.940Z,21.10
2022-08-09T04:54:48.102Z,21.20
2022-08-09T04:57:15.978Z,21.10
2022-08-09T04:59:51.877Z,21.10
2022-08-09T05:02:29.896Z,21.10
2022-08-09T05:04:58.632Z,21.10
2022-08-09T05:07:38.946Z,21.10
2022-08-09T05:10:09.496Z,21.20
2022-08-09T05:12:37.705Z,21.20
2022-08-09T05:15:11.368Z,21.20
2022-08-09T05:18:55.135Z,21.20
2022-08-09T05:20:29.923Z,21.20
2022-08-09T05:23:54.697Z,21.40
2022-08-09T05:25:50.621Z,21.30
2022-08-09T05:28:19.448Z,21.30
2022-08-09T05:30:47.878Z,21.50
2022-08-09T05:33:16.087Z,21.30
2022-08-09T05:35:46.867Z,21.40
2022-08-09T05:38:22.109Z,21.30
2022-08-09T05:40:50.815Z,21.30
2022-08-09T05:43:19.140Z,21.50
2022-08-09T05:45:55.738Z,21.40
2022-08-09T05:48:32.702Z,21.30
2022-08-09T05:51:42.963Z,21.20
2022-08-09T05:53:58.020Z,21.30
2022-08-09T05:56:33.134Z,21.30
2022-08-09T05:59:01.727Z,21.80
2022-08-09T06:01:33.462Z,21.50
2022-08-09T06:04:03.390Z,21.50
2022-08-09T06:06:34.098Z,21.50
2022-08-09T06:09:09.850Z,21.50
2022-08-09T06:11:56.858Z,21.50
2022-08-09T06:14:25.479Z,21.50
2022-08-09T06:16:55.217Z,21.50
2022-08-09T06:19:25.296Z,21.50
2022-08-09T06:21:58.924Z,21.60
2022-08-09T06:24:28.457Z,21.70
2022-08-09T06:26:56.721Z,21.70
2022-08-09T06:29:24.870Z,21.70
2022-08-09T06:32:17.157Z,21.60
2022-08-09T06:34:43.518Z,21.70
2022-08-09T06:37:11.470Z,21.80
2022-08-09T06:39:58.219Z,21.90
2022-08-09T06:42:30.821Z,21.90
2022-08-09T06:45:04.638Z,22.00
2022-08-09T06:47:49.955Z,22.00
2022-08-09T06:50:31.242Z,22.10
2022-08-09T06:53:00.888Z,22.10
2022-08-09T06:55:32.979Z,22.10
2022-08-09T06:58:04.579Z,22.20
2022-08-09T07:00:51.797Z,22.40
2022-08-09T07:03:27.025Z,22.30
2022-08-09T07:06:02.861Z,22.30
2022-08-09T07:08:32.419Z,22.30
2022-08-09T07:11:03.331Z,22.40
2022-08-09T07:14:04.267Z,22.40
2022-08-09T07:16:41.446Z,22.40
2022-08-09T07:19:07.784Z,22.50
2022-08-09T07:21:36.635Z,22.50
2022-08-09T07:24:05.120Z,22.60
2022-08-09T07:26:34.633Z,22.60
2022-08-09T07:29:12.152Z,22.60
2022-08-09T07:31:45.335Z,22.70
2022-08-09T07:34:19.507Z,22.60
2022-08-09T07:36:49.401Z,22.70
2022-08-09T07:39:20.212Z,22.70
2022-08-09T07:42:07.486Z,22.70
2022-08-09T07:44:51.823Z,22.80
2022-08-09T07:47:23.300Z,22.80
2022-08-09T07:50:04.558Z,23.10
2022-08-09T07:52:35.618Z,22.90
2022-08-09T07:55:09.580Z,22.90
2022-08-09T07:57:47.254Z,23.00
2022-08-09T08:00:20.149Z,23.00
2022-08-09T08:03:04.698Z,23.10
2022-08-09T08:05:39.256Z,23.10
2022-08-09T08:09:00.418Z,23.20
2022-08-09T08:12:07.837Z,23.20
2022-08-09T08:13:58.259Z,23.70
2022-08-09T08:16:30.036Z,23.30
2022-08-09T08:19:03.091Z,23.40
2022-08-09T08:21:32.768Z,23.20
2022-08-09T08:24:00.797Z,23.20
2022-08-09T08:26:41.847Z,23.20
2022-08-09T08:29:20.385Z,23.20
2022-08-09T08:32:03.903Z,23.30
2022-08-09T08:34:34.563Z,23.50
2022-08-09T08:37:05.022Z,23.50
2022-08-09T08:39:39.859Z,23.50
2022-08-09T08:42:12.448Z,23.50
2022-08-09T08:44:44.365Z,23.60
2022-08-09T08:47:17.910Z,23.60
2022-08-09T08:49:49.323Z,23.60
2022-08-09T08:55:08.141Z,23.70
2022-08-09T08:57:37.531Z,23.70
2022-08-09T09:00:16.809Z,23.80
2022-08-09T09:02:52.968Z,23.80
2022-08-09T09:05:57.358Z,23.90
2022-08-09T09:08:29.796Z,24.00
2022-08-09T09:11:02.114Z,24.00
2022-08-09T09:13:41.746Z,24.00
2022-08-09T09:16:31.095Z,24.10
2022-08-09T09:19:37.789Z,24.20
2022-08-09T09:22:07.734Z,24.30
2022-08-09T09:24:43.707Z,24.40
2022-08-09T09:28:03.871Z,24.70
2022-08-09T09:30:27.404Z,24.60
2022-08-09T09:33:15.803Z,24.50
2022-08-09T09:36:01.508Z,24.60
2022-08-09T09:38:42.894Z,24.60
2022-08-09T09:41:11.260Z,24.60
2022-08-09T09:43:41.637Z,24.70
2022-08-09T09:46:52.257Z,25.00
2022-08-09T09:49:23.592Z,24.80
2022-08-09T09:52:33.439Z,24.80
2022-08-09T09:55:16.766Z,24.90
2022-08-09T09:58:17.376Z,25.10
2022-08-09T10:00:54.677Z,25.10
2022-08-09T10:03:44.816Z,25.20
2022-08-09T10:06:27.947Z,25.30
2022-08-09T10:09:22.843Z,25.30
2022-08-09T10:12:07.617Z,25.40
2022-08-09T10:14:48.050Z,25.60
2022-08-09T10:17:39.380Z,25.70
2022-08-09T10:20:27.866Z,25.70
2022-08-09T10:23:17.321Z,25.70
2022-08-09T10:26:07.713Z,25.90
2022-08-09T10:28:38.146Z,25.90
2022-08-09T10:34:09.868Z,26.30
2022-08-09T10:36:45.117Z,26.30
2022-08-09T10:39:18.321Z,26.30
2022-08-09T10:41:48.059Z,26.50
2022-08-09T10:44:21.678Z,26.50
2022-08-09T10:48:14.443Z,26.60
2022-08-09T10:50:31.163Z,26.80
2022-08-09T10:53:10.094Z,26.90
2022-08-09T10:55:55.782Z,27.10
2022-08-09T10:58:33.727Z,27.20
2022-08-09T11:03:14.618Z,27.40
2022-08-09T11:04:19.476Z,27.50
2022-08-09T11:07:56.908Z,27.70
2022-08-09T11:10:17.083Z,27.70
2022-08-09T11:13:49.243Z,27.80
2022-08-09T11:16:37.833Z,27.90
2022-08-09T11:19:07.847Z,28.20
2022-08-09T11:21:57.584Z,28.30
2022-08-09T11:25:04.402Z,28.30
2022-08-09T11:28:04.488Z,28.40
2022-08-09T11:30:36.135Z,28.60
2022-08-09T11:33:06.633Z,28.60
2022-08-09T11:35:49.824Z,28.60
2022-08-09T11:38:21.880Z,28.90
2022-08-09T11:40:52.991Z,29.10
2022-08-09T11:43:41.985Z,28.80
2022-08-09T11:46:11.259Z,29.00
2022-08-09T11:48:49.308Z,29.10
2022-08-09T11:52:48.744Z,29.10
2022-08-09T11:54:28.802Z,29.30
2022-08-09T11:57:59.830Z,29.40
2022-08-09T12:00:28.321Z,29.60
2022-08-09T12:02:59.213Z,29.70
2022-08-09T12:05:39.742Z,29.80
2022-08-09T12:08:12.118Z,29.70
2022-08-09T12:10:48.468Z,29.80
2022-08-09T12:14:09.507Z,29.90
2022-08-09T12:16:37.294Z,30.20
2022-08-09T12:19:09.200Z,29.90
2022-08-09T12:21:50.447Z,30.10
2022-08-09T12:24:23.717Z,30.00
2022-08-09T12:29:11.903Z,30.00
2022-08-09T12:30:01.809Z,30.10
2022-08-09T12:32:44.984Z,30.10
2022-08-09T12:35:21.685Z,30.20
2022-08-09T12:37:52.291Z,30.40
2022-08-09T12:40:24.804Z,30.60
2022-08-09T12:42:53.953Z,30.80
2022-08-09T12:45:33.952Z,30.80
2022-08-09T12:48:05.575Z,30.80
2022-08-09T12:50:38.762Z,30.70
2022-08-09T12:53:36.677Z,30.90
2022-08-09T12:56:14.458Z,31.00
2022-08-09T12:59:12.129Z,31.20
2022-08-09T13:01:49.027Z,31.20
2022-08-09T13:04:36.580Z,31.10
2022-08-09T13:07:19.946Z,31.20
2022-08-09T13:10:02.673Z,31.40
2022-08-09T13:12:32.335Z,31.70
2022-08-09T13:15:08.193Z,31.70
2022-08-09T13:18:03.514Z,31.80
2022-08-09T13:20:50.298Z,31.80
2022-08-09T13:24:44.697Z,31.80
2022-08-09T13:26:41.703Z,32.00
2022-08-09T13:29:13.236Z,32.20
2022-08-09T13:32:14.965Z,32.00
2022-08-09T13:34:46.366Z,32.10
2022-08-09T13:37:51.196Z,32.10
2022-08-09T13:41:55.141Z,32.30
2022-08-09T13:42:54.158Z,32.30
2022-08-09T13:45:22.342Z,32.20
2022-08-09T13:48:00.652Z,32.30
2022-08-09T13:50:31.876Z,32.40
2022-08-09T13:53:00.019Z,32.40
2022-08-09T13:55:30.405Z,32.40
2022-08-09T13:57:59.581Z,32.40
2022-08-09T14:00:29.485Z,32.40
2022-08-09T14:03:03.603Z,32.50
2022-08-09T14:05:59.405Z,32.40
2022-08-09T14:08:30.178Z,32.20
2022-08-09T14:11:00.777Z,32.20
2022-08-09T14:14:23.329Z,32.00
2022-08-09T14:16:28.279Z,32.10
2022-08-09T14:18:58.272Z,32.00
2022-08-09T14:21:29.701Z,31.80
2022-08-09T14:24:05.736Z,31.60
2022-08-09T14:26:51.272Z,31.50
2022-08-09T14:30:03.813Z,31.40
2022-08-09T14:32:11.319Z,31.30
2022-08-09T14:34:41.935Z,31.20
2022-08-09T14:37:10.126Z,31.10
2022-08-09T14:39:46.991Z,31.00
2022-08-09T14:42:32.478Z,30.90
2022-08-09T14:46:39.940Z,30.90
2022-08-09T14:47:57.211Z,30.90
2022-08-09T14:50:28.068Z,31.00
2022-08-09T14:52:56.149Z,30.80
2022-08-09T14:55:24.076Z,30.60
2022-08-09T14:57:54.273Z,30.60
2022-08-09T15:00:23.002Z,30.60
2022-08-09T15:02:52.106Z,30.50
2022-08-09T15:05:20.895Z,30.40
2022-08-09T15:07:55.988Z,30.40
2022-08-09T15:10:24.714Z,30.40
2022-08-09T15:12:54.668Z,30.40
2022-08-09T15:15:22.789Z,30.50
2022-08-09T15:17:53.287Z,30.30
2022-08-09T15:22:01.136Z,30.10
2022-08-09T15:24:01.406Z,30.10
2022-08-09T15:25:58.868Z,30.10
2022-08-09T15:28:33.215Z,29.90
2022-08-09T15:31:10.112Z,29.90
2022-08-09T15:34:17.372Z,29.90
2022-08-09T15:36:29.370Z,30.20
2022-08-09T15:38:58.845Z,29.90
2022-08-09T15:41:32.267Z,29.80
2022-08-09T15:44:02.351Z,29.60
2022-08-09T15:46:34.365Z,29.80
2022-08-09T15:49:23.569Z,29.80
2022-08-09T15:52:02.857Z,29.60
2022-08-09T15:54:44.341Z,29.50
2022-08-09T15:57:35.391Z,29.50
2022-08-09T16:00:24.303Z,29.60
2022-08-09T16:02:54.872Z,29.60
2022-08-09T16:05:26.742Z,29.50
2022-08-09T16:08:24.746Z,29.40
2022-08-09T16:10:59.946Z,29.50
2022-08-09T16:14:03.301Z,29.50
2022-08-09T16:16:28.374Z,29.40
2022-08-09T16:18:56.382Z,29.40
2022-08-09T16:21:27.361Z,29.40
2022-08-09T16:24:02.613Z,29.40
2022-08-09T16:26:34.823Z,29.30
2022-08-09T16:29:10.964Z,29.30
2022-08-09T16:32:19.669Z,29.30
2022-08-09T16:34:54.507Z,29.30
2022-08-09T16:37:20.157Z,29.30
2022-08-09T16:40:09.478Z,29.20
2022-08-09T16:42:37.805Z,29.10
2022-08-09T16:45:07.919Z,28.90
2022-08-09T16:48:43.398Z,29.00
2022-08-09T16:50:33.769Z,29.00
2022-08-09T16:53:02.652Z,29.00
2022-08-09T16:55:57.821Z,28.90
2022-08-09T16:58:19.558Z,28.90
2022-08-09T17:00:49.825Z,28.90
2022-08-09T17:03:21.807Z,28.80
2022-08-09T17:06:07.399Z,28.80
2022-08-09T17:08:42.842Z,28.80
2022-08-09T17:11:40.703Z,28.70
2022-08-09T17:14:26.259Z,28.70
2022-08-09T17:17:01.448Z,28.50
2022-08-09T17:19:47.272Z,28.60
2022-08-09T17:22:23.985Z,28.50
2022-08-09T17:25:10.128Z,28.60
2022-08-09T17:27:48.763Z,28.50
2022-08-09T17:30:19.874Z,28.40
2022-08-09T17:32:48.426Z,28.40
2022-08-09T17:35:17.699Z,28.40
2022-08-09T17:38:11.209Z,28.50
2022-08-09T17:40:35.846Z,28.50
2022-08-09T17:43:32.609Z,28.40
2022-08-09T17:46:02.577Z,28.30
2022-08-09T17:48:32.978Z,28.30
2022-08-09T17:51:09.564Z,28.40
2022-08-09T17:53:47.888Z,28.20
2022-08-09T17:56:20.512Z,28.20
2022-08-09T17:58:48.528Z,28.20
2022-08-09T18:01:22.969Z,28.20
2022-08-09T18:03:52.189Z,28.20
2022-08-09T18:06:31.133Z,28.10
2022-08-09T18:09:03.410Z,28.10
2022-08-09T18:11:47.154Z,27.90
2022-08-09T18:14:22.431Z,28.00
2022-08-09T18:16:51.114Z,28.00
2022-08-09T18:21:00.149Z,28.30
2022-08-09T18:22:17.029Z,28.00
2022-08-09T18:24:46.300Z,28.00
2022-08-09T18:27:33.693Z,28.10
2022-08-09T18:30:35.988Z,28.00
2022-08-09T18:32:54.249Z,27.90
2022-08-09T18:35:59.462Z,27.90
2022-08-09T18:38:13.103Z,27.90
2022-08-09T18:40:41.301Z,27.80
2022-08-09T18:43:09.662Z,27.90
2022-08-09T18:46:48.616Z,27.80
2022-08-09T18:48:28.574Z,27.70
2022-08-09T18:50:59.796Z,27.60
2022-08-09T18:53:55.873Z,27.60
2022-08-09T18:56:17.778Z,27.70
2022-08-09T18:58:55.402Z,27.60
2022-08-09T19:01:23.864Z,27.50
2022-08-09T19:04:01.369Z,27.50
2022-08-09T19:06:35.137Z,27.50
2022-08-09T19:09:09.017Z,27.50
2022-08-09T19:11:44.379Z,27.40
2022-08-09T19:14:12.507Z,27.40
2022-08-09T19:16:50.249Z,27.70
2022-08-09T19:19:23.780Z,27.30
2022-08-09T19:22:07.182Z,27.20
2022-08-09T19:25:08.870Z,27.20
2022-08-09T19:27:28.972Z,27.20
2022-08-09T19:30:21.359Z,27.10
2022-08-09T19:32:45.271Z,27.10
2022-08-09T19:35:13.501Z,27.00
2022-08-09T19:37:56.079Z,27.00
2022-08-09T19:40:34.178Z,26.90
2022-08-09T19:43:05.124Z,26.60
2022-08-09T19:45:40.393Z,26.90
2022-08-09T19:48:11.041Z,26.80
2022-08-09T19:50:51.006Z,26.70
2022-08-09T19:53:22.370Z,26.70
2022-08-09T19:56:06.607Z,26.60
2022-08-09T19:58:35.779Z,26.60
2022-08-09T20:01:08.356Z,26.60
2022-08-09T20:04:10.799Z,26.60
2022-08-09T20:06:29.820Z,26.40
2022-08-09T20:08:59.753Z,26.40
2022-08-09T20:11:51.746Z,26.20
2022-08-09T20:14:27.355Z,26.30
2022-08-09T20:16:56.993Z,26.20
2022-08-09T20:19:48.123Z,26.30
2022-08-09T20:22:14.571Z,26.10
2022-08-09T20:24:42.987Z,26.10
2022-08-09T20:27:23.737Z,26.00
2022-08-09T20:30:23.991Z,26.00
2022-08-09T20:32:53.042Z,26.00
2022-08-09T20:35:21.744Z,26.00
2022-08-09T20:38:19.518Z,26.00
2022-08-09T20:40:38.033Z,25.90
2022-08-09T20:43:18.993Z,25.80
2022-08-09T20:46:01.658Z,25.70
2022-08-09T20:48:42.457Z,25.60
2022-08-09T20:51:19.693Z,25.60
2022-08-09T20:53:48.681Z,25.60
2022-08-09T20:56:20.992Z,25.60
2022-08-09T20:59:00.036Z,25.50
2022-08-09T21:01:35.484Z,25.90
2022-08-09T21:05:50.798Z,25.50
2022-08-09T21:07:10.917Z,25.40
2022-08-09T21:09:46.109Z,25.30
2022-08-09T21:15:14.690Z,25.40
2022-08-09T21:18:25.601Z,25.30
2022-08-09T21:20:31.037Z,25.30
2022-08-09T21:23:00.317Z,25.20
2022-08-09T21:25:56.229Z,25.30
2022-08-09T21:28:34.529Z,25.20
2022-08-09T21:31:17.078Z,25.20
2022-08-09T21:33:50.461Z,25.20
2022-08-09T21:36:23.192Z,25.00
2022-08-09T21:38:57.614Z,25.00
2022-08-09T21:42:03.445Z,25.10
2022-08-09T21:44:34.542Z,25.10
2022-08-09T21:47:07.839Z,25.10
2022-08-09T21:49:39.160Z,25.00
2022-08-09T21:52:16.995Z,24.90
2022-08-09T21:54:50.513Z,25.00
2022-08-09T21:57:37.376Z,25.00
2022-08-09T22:00:10.548Z,25.00
2022-08-09T22:02:40.098Z,25.00
2022-08-09T22:05:22.891Z,24.80
2022-08-09T22:07:53.309Z,24.90
2022-08-09T22:10:23.138Z,24.70
2022-08-09T22:12:53.182Z,24.80
2022-08-09T22:15:23.375Z,24.60
2022-08-09T22:18:04.624Z,24.70
2022-08-09T22:20:40.351Z,24.60
2022-08-09T22:23:13.316Z,24.60
2022-08-09T22:26:06.264Z,24.60
2022-08-09T22:28:32.900Z,24.60
2022-08-09T22:31:01.721Z,24.60
2022-08-09T22:33:37.499Z,25.00
2022-08-09T22:36:19.371Z,24.50
2022-08-09T22:38:48.268Z,24.60
2022-08-09T22:41:16.398Z,24.40
2022-08-09T22:44:03.552Z,24.40
2022-08-09T22:48:14.556Z,24.40
2022-08-09T22:49:22.652Z,24.60
2022-08-09T22:51:57.510Z,24.40
2022-08-09T22:54:27.505Z,24.20
2022-08-09T22:56:56.986Z,24.30
2022-08-09T22:59:55.303Z,24.30
2022-08-09T23:02:20.423Z,24.20
2022-08-09T23:04:54.027Z,24.20
2022-08-09T23:08:22.826Z,24.20
2022-08-09T23:10:29.088Z,24.20
2022-08-09T23:12:57.136Z,24.20
2022-08-09T23:15:25.223Z,24.40
2022-08-09T23:17:53.167Z,24.10
2022-08-09T23:20:22.595Z,24.10
2022-08-09T23:22:50.468Z,24.10
2022-08-09T23:25:18.388Z,24.10
2022-08-09T23:27:57.476Z,24.10
2022-08-09T23:30:34.133Z,24.60
2022-08-09T23:33:02.066Z,24.10
2022-08-09T23:35:31.410Z,24.10
2022-08-09T23:38:19.636Z,24.10
2022-08-09T23:40:51.080Z,24.00
2022-08-09T23:43:19.664Z,24.00
2022-08-09T23:45:48.152Z,23.90
2022-08-09T23:48:16.896Z,23.90
2022-08-09T23:50:46.132Z,24.20
2022-08-09T23:53:14.081Z,24.00
2022-08-09T23:55:49.393Z,23.90
2022-08-09T23:58:27.606Z,23.80
